HOURLY OBSERVATIONS


Time
(EST)
Temperature
°F
Dew Point
°F
Humidity
%
Wind
mph
Pressure
mb
Precip.
Hour
in
Precip.
Day
in
6 Hr
Max Temp
°F
6 Hr
Min Temp
°F
15 06:00 39 36 88 Calm 1021.0 0.00
15 05:00 40 37 88 SSW 0 G 1 1020.6 0.00
15 04:00 40 37 88 SSW 0 G 2 1020.6 0.00
15 03:00 39 36 87 WSW 0 G 3 1020.4 0.00
15 02:00 40 36 86 Calm 1020.5 0.00
15 01:00 41 37 85 Calm 1020.4 0.00 50 41
15 00:00 42 37 83 Calm 1020.1 0.00
14 23:00 43 38 82 Calm 1019.9 0.00
14 22:00 44 38 80 Calm 1019.8 0.00
14 21:00 45 39 78 Calm 1019.5 0.00
14 20:00 48 40 74 Calm 1019.1 0.00
14 19:00 50 40 68 Calm 1018.8 0.00 58 50
14 18:00 53 40 61 WSW 0 G 2 1017.9 0.00
14 17:00 56 41 57 Calm 1017.6 0.00
14 16:00 57 41 55 W 2 G 7 1017.2 0.00
14 15:00 57 42 56 SW 2 G 10 1016.8 0.00
14 14:00 56 41 57 W 2 G 5 1016.9 0.00
14 13:00 57 41 55 WSW 5 G 14 1016.6 0.00 57 43
14 12:00 55 40 57 WSW 3 G 9 1017.0 0.00
14 11:00 54 39 57 SW 1 G 8 1017.1 0.00
14 10:00 52 39 61 W 3 G 11 1016.9 0.00
14 09:00 50 40 68 NW 1 G 7 1016.7 0.00
14 08:00 46 39 77 WSW 2 G 6 1016.2 0.00
14 07:00 44 38 82 Calm 1015.5 0.00 53 44
14 06:00 45 39 81 Calm 1015.0 0.00
14 05:00 46 39 79 Calm 1014.2 0.00
14 04:00 48 40 74 Calm 1013.4 0.00
14 03:00 50 41 69 SW 0 G 1 1012.8 0.00
14 02:00 53 41 63 SW 4 G 9 1012.4 0.00
14 01:00 53 41 65 WSW 3 G 9 1012.4 0.00 59 53
14 00:00 54 42 64 SW 2 G 8 1012.2 0.00
13 23:00 55 42 62 SW 4 G 11 1012.2 0.00
13 22:00 55 40 56 SSW 5 G 12 1012.1 0.00
13 21:00 56 37 49 SSW 3 G 11 1012.2 0.00
13 20:00 57 37 46 SW 4 G 10 1011.8 0.00
13 19:00 59 36 42 S 2 G 12 1012.0 0.00 65 59
13 18:00 61 36 39 S 3 G 10 1011.6 0.00
13 17:00 64 36 35 SSW 7 G 14 1011.4 0.00
13 16:00 65 37 36 SW 3 G 12 1011.1 0.00
13 15:00 64 38 38 SSW 7 G 17 1012.0 0.00
13 14:00 63 37 39 SSW 6 G 19 1012.3 0.00
13 13:00 61 40 46 SSW 7 G 17 1013.5 0.00 61 40
13 12:00 59 38 47 SSW 5 G 14 1014.7 0.00
13 11:00 56 40 55 SSW 4 G 11 1015.6 0.00
13 10:00 52 41 65 SW 5 G 14 1016.4 0.00
13 09:00 46 39 75 SW 5 G 11 1016.7 0.00
13 08:00 42 36 79 SW 4 G 11 1017.2 0.00
13 07:00 40 34 80 SSW 4 G 8 1017.2 0.00 44 40
13 06:00 40 34 79 SSW 3 G 8 1017.2 0.00
13 05:00 41 35 79 S 3 G 6 1017.3 0.00
13 04:00 41 35 78 SW 2 G 6 1017.3 0.00
13 03:00 42 35 76 SW 2 G 9 1017.1 0.00
13 02:00 43 35 74 SW 3 G 6 1017.4 0.00
13 01:00 44 35 72 SW 2 G 7 1017.1 0.00 47 43
13 00:00 43 35 71 S 1 G 7 1017.4 0.13
12 23:00 44 34 70 SW 3 G 9 1017.7 0.13
12 22:00 45 34 66 SW 3 G 6 1018.2 0.13
12 21:00 45 34 64 S 2 G 11 1017.7 0.13
12 20:00 46 34 62 SW 2 G 7 1018.0 0.13
12 19:00 47 34 61 SSW 0 G 6 1017.7 0.13 53 47
12 18:00 49 33 54 SW 0 G 3 1017.9 0.13
12 17:00 51 33 49 SSW 6 G 12 1017.6 0.13
12 16:00 52 35 51 SSW 4 G 13 1017.1 0.13
12 15:00 52 35 52 WSW 2 G 12 1017.5 0.13
12 14:00 51 36 56 SSW 4 G 11 1017.6 0.13
12 13:00 48 35 60 SW 5 G 13 1017.9 0.13 48 41
12 12:00 45 37 73 WSW 2 G 11 1018.2 0.02
12 11:00 43 36 77 SW 2 G 9 1018.0 0.02
12 10:00 41 36 82 WSW 3 G 8 1017.9 0.02
12 09:00 42 39 89 WNW 2 G 5 1016.9 0.02
12 08:00 44 41 90 W 2 G 10 1016.4 0.02
12 07:00 45 42 90 W 2 G 6 1015.2 0.02 66 44